createdAt,value
2022-12-15T00:02:41.086Z,16.08
2022-12-15T00:05:26.591Z,15.10
2022-12-15T00:08:11.938Z,15.68
2022-12-15T00:10:57.347Z,15.15
2022-12-15T00:13:42.259Z,14.88
2022-12-15T00:16:27.332Z,16.73
2022-12-15T00:19:13.130Z,17.55
2022-12-15T00:21:58.064Z,14.88
2022-12-15T00:24:42.993Z,16.27
2022-12-15T00:27:28.422Z,14.95
2022-12-15T00:30:14.735Z,16.55
2022-12-15T00:32:59.504Z,16.10
2022-12-15T00:35:44.500Z,15.98
2022-12-15T00:38:32.191Z,17.00
2022-12-15T00:43:29.709Z,13.63
2022-12-15T00:46:15.738Z,15.65
2022-12-15T00:48:42.442Z,16.25
2022-12-15T00:51:09.268Z,17.13
2022-12-15T00:53:54.166Z,16.38
2022-12-15T00:56:39.744Z,15.77
2022-12-15T00:59:24.975Z,17.73
2022-12-15T01:02:09.905Z,17.88
2022-12-15T01:04:55.020Z,18.80
2022-12-15T01:07:40.449Z,16.58
2022-12-15T01:10:25.882Z,16.63
2022-12-15T01:13:11.212Z,17.38
2022-12-15T01:15:56.880Z,16.83
2022-12-15T01:18:42.506Z,15.75
2022-12-15T01:21:10.418Z,16.60
2022-12-15T01:23:38.010Z,14.43
2022-12-15T01:26:05.776Z,16.75
2022-12-15T01:28:32.324Z,15.55
2022-12-15T01:30:58.979Z,16.70
2022-12-15T01:33:25.486Z,17.35
2022-12-15T01:35:57.648Z,15.75
2022-12-15T01:38:24.378Z,16.08
2022-12-15T01:41:14.688Z,16.98
2022-12-15T01:43:41.164Z,15.98
2022-12-15T01:46:12.899Z,16.30
2022-12-15T01:48:57.772Z,15.57
2022-12-15T01:51:31.099Z,17.23
2022-12-15T01:54:07.111Z,15.88
2022-12-15T01:56:38.222Z,16.40
2022-12-15T01:59:08.097Z,15.98
2022-12-15T02:01:35.171Z,15.90
2022-12-15T02:04:02.530Z,15.93
2022-12-15T02:06:29.670Z,16.02
2022-12-15T02:08:57.360Z,17.17
2022-12-15T02:11:45.090Z,16.90
2022-12-15T02:16:48.377Z,16.08
2022-12-15T02:19:27.015Z,16.42
2022-12-15T02:22:27.537Z,16.50
2022-12-15T02:24:53.935Z,15.00
2022-12-15T02:27:38.906Z,17.50
2022-12-15T02:30:24.175Z,16.67
2022-12-15T02:32:55.548Z,16.85
2022-12-15T02:35:37.318Z,16.50
2022-12-15T02:38:03.887Z,15.20
2022-12-15T02:40:30.369Z,16.33
2022-12-15T02:42:58.310Z,15.15
2022-12-15T02:45:43.652Z,17.67
2022-12-15T02:48:26.233Z,15.80
2022-12-15T02:51:20.928Z,15.88
2022-12-15T02:53:59.404Z,17.55
2022-12-15T02:56:34.610Z,17.75
2022-12-15T02:59:25.686Z,17.25
2022-12-15T03:01:59.751Z,17.20
2022-12-15T03:04:26.984Z,17.00
2022-12-15T03:07:01.069Z,16.70
2022-12-15T03:09:28.186Z,17.63
2022-12-15T03:11:54.730Z,17.75
2022-12-15T03:14:21.338Z,15.07
2022-12-15T03:16:47.953Z,17.45
2022-12-15T03:19:14.459Z,16.48
2022-12-15T03:21:40.917Z,16.60
2022-12-15T03:24:07.704Z,17.05
2022-12-15T03:26:34.163Z,17.13
2022-12-15T03:29:00.796Z,16.63
2022-12-15T03:31:27.278Z,16.33
2022-12-15T03:33:53.918Z,17.65
2022-12-15T03:36:20.372Z,16.00
2022-12-15T03:38:46.834Z,17.00
2022-12-15T03:41:13.313Z,16.70
2022-12-15T03:43:39.811Z,16.77
2022-12-15T03:46:06.348Z,16.42
2022-12-15T03:48:32.867Z,17.83
2022-12-15T03:50:59.316Z,18.08
2022-12-15T03:53:25.796Z,16.27
2022-12-15T03:55:52.339Z,16.88
2022-12-15T03:58:18.797Z,15.85
2022-12-15T04:00:45.322Z,17.20
2022-12-15T04:03:12.002Z,15.98
2022-12-15T04:05:38.986Z,15.63
2022-12-15T04:08:05.576Z,15.30
2022-12-15T04:10:34.894Z,15.85
2022-12-15T04:13:05.082Z,15.43
2022-12-15T04:15:31.699Z,16.80
2022-12-15T04:17:58.448Z,16.20
2022-12-15T04:20:24.944Z,16.38
2022-12-15T04:22:51.490Z,14.48
2022-12-15T04:25:41.837Z,16.63
2022-12-15T04:28:28.121Z,15.70
2022-12-15T04:31:16.012Z,15.80
2022-12-15T04:34:04.347Z,14.82
2022-12-15T04:36:50.154Z,16.10
2022-12-15T04:39:35.368Z,16.45
2022-12-15T04:42:21.358Z,15.27
2022-12-15T04:45:06.917Z,15.32
2022-12-15T04:47:51.885Z,14.18
2022-12-15T04:50:36.667Z,14.98
2022-12-15T04:53:28.863Z,15.20
2022-12-15T04:56:18.394Z,16.13
2022-12-15T04:59:04.168Z,16.95
2022-12-15T05:01:49.210Z,16.80
2022-12-15T05:04:35.371Z,14.90
2022-12-15T05:07:20.532Z,17.20
2022-12-15T05:10:08.312Z,15.35
2022-12-15T05:12:57.682Z,14.85
2022-12-15T05:15:42.953Z,15.05
2022-12-15T05:18:28.050Z,16.27
2022-12-15T05:21:13.504Z,15.65
2022-12-15T05:23:58.173Z,16.42
2022-12-15T05:26:44.693Z,15.50
2022-12-15T05:29:32.909Z,14.48
2022-12-15T05:31:59.358Z,15.45
2022-12-15T05:34:30.333Z,17.42
2022-12-15T05:36:58.055Z,16.02
2022-12-15T05:39:25.405Z,15.60
2022-12-15T05:41:52.227Z,15.63
2022-12-15T05:44:18.815Z,16.90
2022-12-15T05:46:45.464Z,16.38
2022-12-15T05:49:17.710Z,15.82
2022-12-15T05:51:46.267Z,20.92
2022-12-15T05:54:15.390Z,18.27
2022-12-15T05:56:41.874Z,17.13
2022-12-15T05:59:08.335Z,17.38
2022-12-15T06:01:35.461Z,17.58
2022-12-15T06:04:02.241Z,16.95
2022-12-15T06:06:28.850Z,14.55
2022-12-15T06:08:56.834Z,16.40
2022-12-15T06:11:23.470Z,14.23
2022-12-15T06:13:50.250Z,15.82
2022-12-15T06:16:21.365Z,15.35
2022-12-15T06:18:50.666Z,14.65
2022-12-15T06:21:19.627Z,15.07
2022-12-15T06:23:46.644Z,15.18
2022-12-15T06:26:16.158Z,15.15
2022-12-15T06:28:42.766Z,14.48
2022-12-15T06:31:10.841Z,15.38
2022-12-15T06:33:38.180Z,16.27
2022-12-15T06:36:24.067Z,16.08
2022-12-15T06:38:51.605Z,14.80
2022-12-15T06:41:20.572Z,16.27
2022-12-15T06:43:51.646Z,15.98
2022-12-15T06:46:18.267Z,15.73
2022-12-15T06:48:45.853Z,17.90
2022-12-15T06:51:17.401Z,16.25
2022-12-15T06:53:48.711Z,15.02
2022-12-15T06:56:32.495Z,15.18
2022-12-15T06:59:00.598Z,15.23
2022-12-15T07:01:27.502Z,15.93
2022-12-15T07:03:54.918Z,16.05
2022-12-15T07:06:21.620Z,16.20
2022-12-15T07:08:53.760Z,16.08
2022-12-15T07:11:21.440Z,14.85
2022-12-15T07:13:52.080Z,16.38
2022-12-15T07:16:19.681Z,16.17
2022-12-15T07:18:46.275Z,16.05
2022-12-15T07:21:12.916Z,15.98
2022-12-15T07:23:54.180Z,16.63
2022-12-15T07:26:21.904Z,16.63
2022-12-15T07:28:48.384Z,16.02
2022-12-15T07:31:15.534Z,17.75
2022-12-15T07:33:42.696Z,15.35
2022-12-15T07:36:09.403Z,15.85
2022-12-15T07:38:36.003Z,17.10
2022-12-15T07:41:04.624Z,17.15
2022-12-15T07:43:31.784Z,16.58
2022-12-15T07:45:58.911Z,16.70
2022-12-15T07:48:25.576Z,16.55
2022-12-15T07:51:02.735Z,16.13
2022-12-15T07:53:34.981Z,16.80
2022-12-15T07:56:10.111Z,15.77
2022-12-15T07:58:37.655Z,16.27
2022-12-15T08:01:06.440Z,17.35
2022-12-15T08:03:33.796Z,15.50
2022-12-15T08:06:12.082Z,16.55
2022-12-15T08:08:39.396Z,15.82
2022-12-15T08:11:10.050Z,16.60
2022-12-15T08:14:02.139Z,15.45
2022-12-15T08:16:24.239Z,15.02
2022-12-15T08:18:50.779Z,15.02
2022-12-15T08:21:17.453Z,15.13
2022-12-15T08:23:43.988Z,14.88
2022-12-15T08:26:12.734Z,15.40
2022-12-15T08:28:39.944Z,16.60
2022-12-15T08:31:14.891Z,16.77
2022-12-15T08:33:41.512Z,16.23
2022-12-15T08:36:10.187Z,18.77
2022-12-15T08:38:38.631Z,19.58
2022-12-15T08:41:10.621Z,16.58
2022-12-15T08:43:41.159Z,18.42
2022-12-15T08:46:12.933Z,16.60
2022-12-15T08:48:39.903Z,14.30
2022-12-15T08:51:06.670Z,16.17
2022-12-15T08:53:33.143Z,16.98
2022-12-15T08:56:07.746Z,16.40
2022-12-15T08:58:34.384Z,15.43
2022-12-15T09:01:06.478Z,15.63
2022-12-15T09:03:35.809Z,16.63
2022-12-15T09:06:06.635Z,25.23
2022-12-15T09:08:33.579Z,20.80
2022-12-15T09:11:00.670Z,13.77
2022-12-15T09:13:28.237Z,16.05
2022-12-15T09:16:10.622Z,14.18
2022-12-15T09:18:37.742Z,15.35
2022-12-15T09:21:06.093Z,14.50
2022-12-15T09:23:33.598Z,14.43
2022-12-15T09:26:01.560Z,15.93
2022-12-15T09:28:32.033Z,15.23
2022-12-15T09:31:21.689Z,13.52
2022-12-15T09:33:49.825Z,15.23
2022-12-15T09:36:16.345Z,14.00
2022-12-15T09:38:42.961Z,12.38
2022-12-15T09:41:15.444Z,15.90
2022-12-15T09:43:52.042Z,14.43
2022-12-15T09:46:28.321Z,14.48
2022-12-15T09:48:57.953Z,14.82
2022-12-15T09:51:33.475Z,15.73
2022-12-15T09:54:00.516Z,13.88
2022-12-15T09:56:40.327Z,15.43
2022-12-15T09:59:22.239Z,17.65
2022-12-15T10:02:13.968Z,13.57
2022-12-15T10:05:11.599Z,15.23
2022-12-15T10:07:46.191Z,14.27
2022-12-15T10:10:19.983Z,15.90
2022-12-15T10:12:55.511Z,15.07
2022-12-15T10:15:29.648Z,14.80
2022-12-15T10:18:03.170Z,15.02
2022-12-15T10:20:31.381Z,13.68
2022-12-15T10:23:02.495Z,16.92
2022-12-15T10:25:31.301Z,14.32
2022-12-15T10:28:34.720Z,16.50
2022-12-15T10:31:13.155Z,15.15
2022-12-15T10:33:47.149Z,13.82
2022-12-15T10:36:16.398Z,14.82
2022-12-15T10:41:34.715Z,13.30
2022-12-15T10:44:02.656Z,13.95
2022-12-15T10:46:30.547Z,14.75
2022-12-15T10:48:59.852Z,16.17
2022-12-15T10:51:38.705Z,13.02
2022-12-15T10:54:09.524Z,12.98
2022-12-15T10:56:57.267Z,15.85
2022-12-15T11:01:52.250Z,13.00
2022-12-15T11:04:29.783Z,14.70
2022-12-15T11:07:01.853Z,14.43
2022-12-15T11:09:38.857Z,15.85
2022-12-15T11:12:41.327Z,15.85
2022-12-15T11:15:23.173Z,16.80
2022-12-15T11:18:23.041Z,16.15
2022-12-15T11:21:05.617Z,16.67
2022-12-15T11:24:11.940Z,17.27
2022-12-15T11:26:52.162Z,17.10
2022-12-15T11:29:27.013Z,14.38
2022-12-15T11:37:03.536Z,14.25
2022-12-15T11:40:19.840Z,15.77
2022-12-15T11:43:15.664Z,14.23
2022-12-15T11:46:00.906Z,14.85
2022-12-15T11:48:45.609Z,14.23
2022-12-15T11:51:37.114Z,13.98
2022-12-15T11:54:14.670Z,13.63
2022-12-15T11:56:56.520Z,14.65
2022-12-15T11:59:56.624Z,15.10
2022-12-15T12:02:38.889Z,14.25
2022-12-15T12:05:27.594Z,14.98
2022-12-15T12:08:08.985Z,13.30
2022-12-15T12:10:57.134Z,12.63
2022-12-15T12:13:50.398Z,14.20
2022-12-15T12:16:46.777Z,14.70
2022-12-15T12:19:15.069Z,14.27
2022-12-15T12:21:50.922Z,13.52
2022-12-15T12:24:30.100Z,15.68
2022-12-15T12:27:33.838Z,10.63
2022-12-15T12:30:06.391Z,12.15
2022-12-15T12:32:50.618Z,14.80
2022-12-15T12:35:47.088Z,12.65
2022-12-15T12:38:20.130Z,12.15
2022-12-15T12:40:53.781Z,13.32
2022-12-15T12:43:32.112Z,11.60
2022-12-15T12:46:33.244Z,14.00
2022-12-15T12:49:22.803Z,13.40
2022-12-15T12:51:53.765Z,13.73
2022-12-15T12:54:32.504Z,15.30
2022-12-15T12:56:59.301Z,14.70
2022-12-15T12:59:28.709Z,14.38
2022-12-15T13:01:56.264Z,14.52
2022-12-15T13:04:28.998Z,14.88
2022-12-15T13:06:55.376Z,14.75
2022-12-15T13:09:23.636Z,13.57
2022-12-15T13:11:52.991Z,13.85
2022-12-15T13:14:42.598Z,16.02
2022-12-15T13:17:30.770Z,13.70
2022-12-15T13:19:57.253Z,14.65
2022-12-15T13:22:35.516Z,14.05
2022-12-15T13:25:23.465Z,14.35
2022-12-15T13:27:57.692Z,14.60
2022-12-15T13:30:24.329Z,13.95
2022-12-15T13:32:55.291Z,14.63
2022-12-15T13:35:32.173Z,13.75
2022-12-15T13:38:04.104Z,14.52
2022-12-15T13:40:53.900Z,13.80
2022-12-15T13:43:26.500Z,14.95
2022-12-15T13:45:59.370Z,14.90
2022-12-15T13:48:39.164Z,14.20
2022-12-15T13:51:21.470Z,15.07
2022-12-15T13:54:08.139Z,13.88
2022-12-15T13:56:58.483Z,14.07
2022-12-15T13:59:33.867Z,14.35
2022-12-15T14:02:03.826Z,14.88
2022-12-15T14:04:30.463Z,12.85
2022-12-15T14:07:00.394Z,14.68
2022-12-15T14:09:37.137Z,14.30
2022-12-15T14:12:05.892Z,14.23
2022-12-15T14:14:35.464Z,15.70
2022-12-15T14:17:06.060Z,14.85
2022-12-15T14:19:41.004Z,15.20
2022-12-15T14:22:27.468Z,15.75
2022-12-15T14:25:23.771Z,14.25
2022-12-15T14:27:51.203Z,17.33
2022-12-15T14:30:29.531Z,16.67
2022-12-15T14:33:01.743Z,12.75
2022-12-15T14:35:36.938Z,15.13
2022-12-15T14:38:06.969Z,13.75
2022-12-15T14:40:36.348Z,14.80
2022-12-15T14:43:04.604Z,15.60
2022-12-15T14:45:32.112Z,13.73
2022-12-15T14:48:39.543Z,14.48
2022-12-15T14:50:53.124Z,13.00
2022-12-15T14:53:21.223Z,12.75
2022-12-15T14:55:47.756Z,13.05
2022-12-15T14:58:26.411Z,13.95
2022-12-15T15:00:54.546Z,14.02
2022-12-15T15:03:06.719Z,14.50
2022-12-15T15:03:26.134Z,13.15
2022-12-15T15:05:57.344Z,12.48
2022-12-15T15:08:28.508Z,12.65
2022-12-15T15:10:58.018Z,12.50
2022-12-15T15:13:39.561Z,13.90
2022-12-15T15:16:13.008Z,12.73
2022-12-15T15:18:39.750Z,12.27
2022-12-15T15:21:07.292Z,12.15
2022-12-15T15:23:33.730Z,12.93
2022-12-15T15:26:06.568Z,12.82
2022-12-15T15:28:41.034Z,10.90
2022-12-15T15:31:33.948Z,11.48
2022-12-15T15:34:05.208Z,11.93
2022-12-15T15:36:34.362Z,11.30
2022-12-15T15:39:04.410Z,11.98
2022-12-15T15:41:32.791Z,13.27
2022-12-15T15:44:00.891Z,11.82
2022-12-15T15:46:34.694Z,11.93
2022-12-15T15:49:07.522Z,11.45
2022-12-15T15:51:34.308Z,11.25
2022-12-15T15:54:22.623Z,10.15
2022-12-15T15:56:49.188Z,11.02
2022-12-15T15:59:18.749Z,11.18
2022-12-15T16:01:48.517Z,10.70
2022-12-15T16:04:15.343Z,11.15
2022-12-15T16:06:47.044Z,11.05
2022-12-15T16:09:14.980Z,12.18
2022-12-15T16:11:41.546Z,11.52
2022-12-15T16:14:12.760Z,12.00
2022-12-15T16:16:40.199Z,13.40
2022-12-15T16:19:07.071Z,11.40
2022-12-15T16:21:35.343Z,12.85
2022-12-15T16:24:09.028Z,12.15
2022-12-15T16:26:37.319Z,10.23
2022-12-15T16:29:11.988Z,10.75
2022-12-15T16:31:41.957Z,11.65
2022-12-15T16:34:09.013Z,11.73
2022-12-15T16:36:35.609Z,12.98
2022-12-15T16:39:02.370Z,12.45
2022-12-15T16:41:29.199Z,14.85
2022-12-15T16:43:55.749Z,12.77
2022-12-15T16:46:22.331Z,12.07
2022-12-15T16:48:48.906Z,11.27
2022-12-15T16:51:33.598Z,11.77
2022-12-15T16:54:00.089Z,12.32
2022-12-15T16:56:26.550Z,12.82
2022-12-15T16:59:08.715Z,12.07
2022-12-15T17:01:40.608Z,11.65
2022-12-15T17:04:07.626Z,12.35
2022-12-15T17:06:34.572Z,11.20
2022-12-15T17:09:01.478Z,13.15
2022-12-15T17:11:29.004Z,12.60
2022-12-15T17:13:57.845Z,12.07
2022-12-15T17:16:25.927Z,13.00
2022-12-15T17:18:55.159Z,12.40
2022-12-15T17:21:27.176Z,13.18
2022-12-15T17:23:57.731Z,10.93
2022-12-15T17:26:30.202Z,12.02
2022-12-15T17:29:01.006Z,12.02
2022-12-15T17:31:34.697Z,12.68
2022-12-15T17:36:32.965Z,11.45
2022-12-15T17:39:01.016Z,12.73
2022-12-15T17:41:58.268Z,13.82
2022-12-15T17:44:37.775Z,13.38
2022-12-15T17:47:07.359Z,13.07
2022-12-15T17:49:37.267Z,12.20
2022-12-15T17:52:34.337Z,12.73
2022-12-15T17:55:02.302Z,12.40
2022-12-15T17:57:31.697Z,12.52
2022-12-15T17:59:59.520Z,12.80
2022-12-15T18:02:26.315Z,12.95
2022-12-15T18:04:54.101Z,12.00
2022-12-15T18:07:27.750Z,12.68
2022-12-15T18:09:59.331Z,12.02
2022-12-15T18:12:26.893Z,12.25
2022-12-15T18:14:54.127Z,12.48
2022-12-15T18:17:20.789Z,13.63
2022-12-15T18:19:47.295Z,13.98
2022-12-15T18:22:17.144Z,13.82
2022-12-15T18:24:43.641Z,13.38
2022-12-15T18:27:19.260Z,13.60
2022-12-15T18:29:45.772Z,14.00
2022-12-15T18:32:12.273Z,13.90
2022-12-15T18:34:38.736Z,12.77
2022-12-15T18:37:20.141Z,13.73
2022-12-15T18:39:47.151Z,13.52
2022-12-15T18:42:15.757Z,13.68
2022-12-15T18:44:46.203Z,17.90
2022-12-15T18:47:21.367Z,16.08
2022-12-15T18:49:48.345Z,21.58
2022-12-15T18:52:17.610Z,17.00
2022-12-15T18:54:44.815Z,22.70
2022-12-15T18:57:30.878Z,16.83
2022-12-15T18:59:59.105Z,22.88
2022-12-15T19:02:25.712Z,17.63
2022-12-15T19:04:52.355Z,20.83
2022-12-15T19:07:18.898Z,18.08
2022-12-15T19:09:45.385Z,17.92
2022-12-15T19:12:18.670Z,20.98
2022-12-15T19:14:47.120Z,18.15
2022-12-15T19:20:18.127Z,19.42
2022-12-15T19:22:45.345Z,19.75
2022-12-15T19:25:23.359Z,13.23
2022-12-15T19:27:52.393Z,12.50
2022-12-15T19:30:19.542Z,12.43
2022-12-15T19:32:46.084Z,12.50
2022-12-15T19:35:12.687Z,15.10
2022-12-15T19:37:41.585Z,14.93
2022-12-15T19:40:11.006Z,14.73
2022-12-15T19:42:37.704Z,14.05
2022-12-15T19:45:17.931Z,15.05
2022-12-15T19:47:44.765Z,13.68
2022-12-15T19:50:25.862Z,15.18
2022-12-15T19:52:56.120Z,14.40
2022-12-15T19:55:27.170Z,13.65
2022-12-15T19:57:53.642Z,12.73
2022-12-15T20:00:22.094Z,12.27
2022-12-15T20:05:15.885Z,13.57
2022-12-15T20:07:42.355Z,13.32
2022-12-15T20:10:32.207Z,12.98
2022-12-15T20:13:00.737Z,12.15
2022-12-15T20:15:27.475Z,12.32
2022-12-15T20:17:56.536Z,12.60
2022-12-15T20:20:25.062Z,12.38
2022-12-15T20:25:23.845Z,11.05
2022-12-15T20:27:50.322Z,12.20
2022-12-15T20:30:25.114Z,11.65
2022-12-15T20:32:51.871Z,12.35
2022-12-15T20:35:20.357Z,13.15
2022-12-15T20:40:25.417Z,12.90
2022-12-15T20:42:52.860Z,13.82
2022-12-15T20:45:21.436Z,13.52
2022-12-15T20:47:49.118Z,14.90
2022-12-15T20:50:34.818Z,14.05
2022-12-15T20:53:01.341Z,12.20
2022-12-15T20:55:28.037Z,13.45
2022-12-15T20:57:54.963Z,12.57
2022-12-15T21:00:22.423Z,13.82
2022-12-15T21:02:49.638Z,13.15
2022-12-15T21:05:21.175Z,14.20
2022-12-15T21:07:48.089Z,11.65
2022-12-15T21:10:16.352Z,12.27
2022-12-15T21:15:18.510Z,11.80
2022-12-15T21:20:13.195Z,12.88
2022-12-15T21:22:40.579Z,11.73
2022-12-15T21:25:25.596Z,11.85
2022-12-15T21:27:52.722Z,12.15
2022-12-15T21:30:21.955Z,13.05
2022-12-15T21:32:51.598Z,10.40
2022-12-15T21:35:18.690Z,11.10
2022-12-15T21:37:47.644Z,12.18
2022-12-15T21:40:21.982Z,12.32
2022-12-15T21:42:49.960Z,12.45
2022-12-15T21:45:21.988Z,12.63
2022-12-15T21:48:08.111Z,13.13
2022-12-15T21:50:35.434Z,12.77
2022-12-15T21:53:03.124Z,11.70
2022-12-15T21:55:29.958Z,12.65
2022-12-15T21:57:57.382Z,11.70
2022-12-15T22:00:45.768Z,11.75
2022-12-15T22:03:12.475Z,11.15
2022-12-15T22:05:39.854Z,12.10
2022-12-15T22:08:18.208Z,11.05
2022-12-15T22:10:46.033Z,11.80
2022-12-15T22:13:16.410Z,8.77
2022-12-15T22:15:43.527Z,11.82
2022-12-15T22:18:19.291Z,11.57
2022-12-15T22:20:48.299Z,11.05
2022-12-15T22:23:16.313Z,12.00
2022-12-15T22:25:42.895Z,12.75
2022-12-15T22:28:21.623Z,13.77
2022-12-15T22:30:49.983Z,14.32
2022-12-15T22:33:23.812Z,12.95
2022-12-15T22:35:51.524Z,13.07
2022-12-15T22:38:19.110Z,13.10
2022-12-15T22:40:49.040Z,12.27
2022-12-15T22:43:38.727Z,13.27
2022-12-15T22:46:07.002Z,13.50
2022-12-15T22:48:39.979Z,10.40
2022-12-15T22:51:06.634Z,12.98
2022-12-15T22:53:34.662Z,13.85
2022-12-15T22:56:04.391Z,13.35
2022-12-15T22:58:38.553Z,14.82
2022-12-15T23:01:06.555Z,14.77
2022-12-15T23:03:33.911Z,15.48
2022-12-15T23:06:02.224Z,15.63
2022-12-15T23:08:30.109Z,14.77
2022-12-15T23:11:15.180Z,15.57
2022-12-15T23:13:41.641Z,16.27
2022-12-15T23:16:21.418Z,15.32
2022-12-15T23:18:49.676Z,13.80
2022-12-15T23:21:18.559Z,16.08
2022-12-15T23:23:45.070Z,15.05
2022-12-15T23:26:12.247Z,16.95
2022-12-15T23:28:39.272Z,15.15
2022-12-15T23:31:06.379Z,14.38
2022-12-15T23:33:33.481Z,15.07
2022-12-15T23:36:00.821Z,15.35
2022-12-15T23:38:28.479Z,14.55
2022-12-15T23:40:56.041Z,16.50
2022-12-15T23:43:23.345Z,16.27
2022-12-15T23:46:01.002Z,15.07
2022-12-15T23:48:32.539Z,15.75
2022-12-15T23:51:10.567Z,15.32
2022-12-15T23:53:38.042Z,15.98
2022-12-15T23:56:06.418Z,15.93
2022-12-15T23:58:32.901Z,15.27
